Bf Esperanza — V2BR8 — position and weather

sailwx.info

Track history (hours):
 
Tides and Currents Weather Stations Pressure Air Temp Water Temp Dewpoint Dewpoint Depression Visibility Wind Speed Wind Dir Waves Ship Positions

Bf Esperanza

Last reported at 2015-Aug-31 06:23 UTC. Time now 2015-Aug-31 06:47 UTC.
Position N 35°43' W 000°38'.

Length 135 m; draft 6.9 m.

Type: Cargo ship. MMSI: 304907000.

Date/timePositionNaut miles runAvg speedWind from/ knotsBaromVisibWave heightAir tempDewpointWater temp
2015-Aug-31 06:23N 35°43' W 000°38'0 0.0
2015-Aug-31 01:26N 35°43' W 000°38'0 0.0
2015-Aug-30 23:32N 35°43' W 000°38'0 0.0
2015-Aug-30 22:31N 35°43' W 000°38'0 0.0
2015-Aug-30 21:31N 35°43' W 000°38'0 0.0
2015-Aug-30 20:31N 35°43' W 000°38'3 1.3
2015-Aug-30 18:21N 35°45' W 000°37'0 0.0
2015-Aug-28 17:33N 35°45' W 000°37'0 0.0
2015-Aug-28 16:27N 35°45' W 000°37'  
2015-Aug-25 02:20N 36°55' W 000°45'1013.3
2015-Aug-25 01:33N 37°05' W 000°41'1513.6
2015-Aug-25 00:27N 37°17' W 000°30'1214.0
2015-Aug-24 23:33N 37°28' W 000°22'1514.5
2015-Aug-24 22:33N 37°41' W 000°13'1414.2
2015-Aug-24 21:33N 37°53' W 000°05'1414.4
2015-Aug-24 20:33N 38°06' E 000°03'1714.0
2015-Aug-24 19:21N 38°21' E 000°12'2513.4
2015-Aug-24 17:30N 38°44' E 000°24'58 4.4
2015-Aug-24 04:14N 39°40' E 000°46'912.9
2015-Aug-24 03:33N 39°47' E 000°53'1312.8
2015-Aug-24 02:33N 39°57' E 001°03'1313.3
2015-Aug-24 01:33N 40°09' E 001°11'1413.5
2015-Aug-24 00:33N 40°21' E 001°19'1313.2
2015-Aug-23 23:33N 40°33' E 001°27'1313.2
2015-Aug-23 22:33N 40°45' E 001°35'1413.8
2015-Aug-23 21:33N 40°55' E 001°47'1413.9
2015-Aug-23 20:33N 41°06' E 001°59'1413.4
2015-Aug-23 19:32N 41°16' E 002°10'5 4.1
2015-Aug-23 18:21N 41°21' E 002°10'0 0.0
2015-Aug-23 17:33N 41°21' E 002°10'0 0.0
2015-Aug-23 16:17N 41°21' E 002°10'0 0.0
2015-Aug-23 15:29N 41°21' E 002°10'2 0.4
2015-Aug-23 10:33N 41°19' E 002°10'16 3.1
2015-Aug-23 05:33N 41°24' E 002°30'8 0.9
2015-Aug-22 21:31N 41°21' E 002°39'5714.3
2015-Aug-22 17:31N 42°00' E 003°36'3114.4
2015-Aug-22 15:22N 42°23' E 004°05'1214.3
2015-Aug-22 14:31N 42°31' E 004°16'1514.3
2015-Aug-22 13:27N 42°42' E 004°31'1314.9
2015-Aug-22 12:33N 42°52' E 004°44'1414.4
2015-Aug-22 11:34N 43°02' E 004°57'1414.0
2015-Aug-22 10:34N 43°13' E 005°09'11 9.3
2015-Aug-22 09:21N 43°21' E 005°20'0 0.0
2015-Aug-22 04:27N 43°21' E 005°20'0 0.0
2015-Aug-22 03:12N 43°21' E 005°20'0 0.0
2015-Aug-22 02:30N 43°21' E 005°20'0 0.0
2015-Aug-22 01:23N 43°21' E 005°20'0 0.0
2015-Aug-21 22:28N 43°21' E 005°20'0 0.0
2015-Aug-21 21:30N 43°21' E 005°20'0 0.0
2015-Aug-21 20:32N 43°21' E 005°20'0 0.0
2015-Aug-21 19:33N 43°21' E 005°20'0 0.0
2015-Aug-21 18:33N 43°21' E 005°20'0 0.0
2015-Aug-21 17:33N 43°21' E 005°20'0 0.0
2015-Aug-21 16:33N 43°21' E 005°20'0 0.0
2015-Aug-21 15:32N 43°21' E 005°20'0 0.0
2015-Aug-21 14:32N 43°21' E 005°20'0 0.0
2015-Aug-21 13:30N 43°21' E 005°20'0 0.0
2015-Aug-21 12:33N 43°21' E 005°20'0 0.0
2015-Aug-21 11:33N 43°21' E 005°20'0 0.0
2015-Aug-21 10:33N 43°21' E 005°20'0 0.0
2015-Aug-21 09:33N 43°21' E 005°20'0 0.0
2015-Aug-21 08:33N 43°21' E 005°20'0 0.0
2015-Aug-21 07:33N 43°21' E 005°20'0 0.0
2015-Aug-21 06:32N 43°21' E 005°20'  
Track history (hours):
 
Tides and Currents Weather Stations Pressure Air Temp Water Temp Dewpoint Dewpoint Depression Visibility Wind Speed Wind Dir Waves Ship Positions

Bf Esperanza

Last reported at 2015-Aug-31 06:23 UTC. Time now 2015-Aug-31 06:47 UTC.
Position N 35°43' W 000°38'.

Length 135 m; draft 6.9 m.

Type: Cargo ship. MMSI: 304907000.

Date/timePositionNaut miles runAvg speedWind from/ knotsBaromVisibWave heightAir tempDewpointWater temp
2015-Aug-31 06:23N 35°43' W 000°38'0 0.0
2015-Aug-31 01:26N 35°43' W 000°38'0 0.0
2015-Aug-30 23:32N 35°43' W 000°38'0 0.0
2015-Aug-30 22:31N 35°43' W 000°38'0 0.0
2015-Aug-30 21:31N 35°43' W 000°38'0 0.0
2015-Aug-30 20:31N 35°43' W 000°38'3 1.3
2015-Aug-30 18:21N 35°45' W 000°37'0 0.0
2015-Aug-28 17:33N 35°45' W 000°37'0 0.0
2015-Aug-28 16:27N 35°45' W 000°37'  
2015-Aug-25 02:20N 36°55' W 000°45'1013.3
2015-Aug-25 01:33N 37°05' W 000°41'1513.6
2015-Aug-25 00:27N 37°17' W 000°30'1214.0
2015-Aug-24 23:33N 37°28' W 000°22'1514.5
2015-Aug-24 22:33N 37°41' W 000°13'1414.2
2015-Aug-24 21:33N 37°53' W 000°05'1414.4
2015-Aug-24 20:33N 38°06' E 000°03'1714.0
2015-Aug-24 19:21N 38°21' E 000°12'2513.4
2015-Aug-24 17:30N 38°44' E 000°24'58 4.4
2015-Aug-24 04:14N 39°40' E 000°46'912.9
2015-Aug-24 03:33N 39°47' E 000°53'1312.8
2015-Aug-24 02:33N 39°57' E 001°03'1313.3
2015-Aug-24 01:33N 40°09' E 001°11'1413.5
2015-Aug-24 00:33N 40°21' E 001°19'1313.2
2015-Aug-23 23:33N 40°33' E 001°27'1313.2
2015-Aug-23 22:33N 40°45' E 001°35'1413.8
2015-Aug-23 21:33N 40°55' E 001°47'1413.9
2015-Aug-23 20:33N 41°06' E 001°59'1413.4
2015-Aug-23 19:32N 41°16' E 002°10'5 4.1
2015-Aug-23 18:21N 41°21' E 002°10'0 0.0
2015-Aug-23 17:33N 41°21' E 002°10'0 0.0
2015-Aug-23 16:17N 41°21' E 002°10'0 0.0
2015-Aug-23 15:29N 41°21' E 002°10'2 0.4
2015-Aug-23 10:33N 41°19' E 002°10'16 3.1
2015-Aug-23 05:33N 41°24' E 002°30'8 0.9
2015-Aug-22 21:31N 41°21' E 002°39'5714.3
2015-Aug-22 17:31N 42°00' E 003°36'3114.4
2015-Aug-22 15:22N 42°23' E 004°05'1214.3
2015-Aug-22 14:31N 42°31' E 004°16'1514.3
2015-Aug-22 13:27N 42°42' E 004°31'1314.9
2015-Aug-22 12:33N 42°52' E 004°44'1414.4
2015-Aug-22 11:34N 43°02' E 004°57'1414.0
2015-Aug-22 10:34N 43°13' E 005°09'11 9.3
2015-Aug-22 09:21N 43°21' E 005°20'0 0.0
2015-Aug-22 04:27N 43°21' E 005°20'0 0.0
2015-Aug-22 03:12N 43°21' E 005°20'0 0.0
2015-Aug-22 02:30N 43°21' E 005°20'0 0.0
2015-Aug-22 01:23N 43°21' E 005°20'0 0.0
2015-Aug-21 22:28N 43°21' E 005°20'0 0.0
2015-Aug-21 21:30N 43°21' E 005°20'0 0.0
2015-Aug-21 20:32N 43°21' E 005°20'0 0.0
2015-Aug-21 19:33N 43°21' E 005°20'0 0.0
2015-Aug-21 18:33N 43°21' E 005°20'0 0.0
2015-Aug-21 17:33N 43°21' E 005°20'0 0.0
2015-Aug-21 16:33N 43°21' E 005°20'0 0.0
2015-Aug-21 15:32N 43°21' E 005°20'0 0.0
2015-Aug-21 14:32N 43°21' E 005°20'0 0.0
2015-Aug-21 13:30N 43°21' E 005°20'0 0.0
2015-Aug-21 12:33N 43°21' E 005°20'0 0.0
2015-Aug-21 11:33N 43°21' E 005°20'0 0.0
2015-Aug-21 10:33N 43°21' E 005°20'0 0.0
2015-Aug-21 09:33N 43°21' E 005°20'0 0.0
2015-Aug-21 08:33N 43°21' E 005°20'0 0.0
2015-Aug-21 07:33N 43°21' E 005°20'0 0.0
2015-Aug-21 06:32N 43°21' E 005°20'  

Dump ship's entire track history